Stoner, Colorado
Current Conditions -  °F | °C
As of 2:53 PM on Friday 24 Oct 2014 (Local Time) from KCEZ Reporting Station
Clear Clear  
Wind Chill: 74°   Ceiling: Unl
Heat Index: 74°   Visibility: 10mi
Dew Point: 30°   Wind: 3mph
Humidity: 20%   Direction: NA
Pressure: 30.3"   Gusts: NA
Location:  37.5429°N, 108.35°W
Report Text: KCEZ 242053Z AUTO VRB03KT 10SM CLR 23/M01 A3030 RMK AO2 SLP214 T02331011 56019
Loading
Personal Weather Stations






























Interactive Weather Map
Tropical Storm Tracking
New forecast layout! Learn more

10-Day Weather Forecast

Advertisements
Track Severe Weather on mobile